Terminal Aerodrome Forecast
Issued by NWS Charleston, WV

Current Version | Previous Version | Graphics & Text | Print | Product List | Glossary On
Versions: 1 2 3 4 5 6 7 8 9 10 11 12 13 14 15 16 17 18 19 20 21 22 23 24 25
926
FTUS41 KRLX 231729
TAFEKN
TAF
KEKN 231729Z 2318/2418 25009KT P6SM VCTS BKN035CB
      TEMPO 2321/2401 2SM +TSRA OVC025CB
     FM240300 24004KT 6SM +SHRA VCTS BKN010CB
     FM240500 VRB03KT P6SM BKN025
     FM240900 VRB03KT P6SM BKN003
     FM241300 VRB03KT P6SM BKN015
     FM241600 26005KT P6SM SCT035=

USA.gov is the U.S. government's official web portal to all federal, state and local government web resources and services.